CheckWX is a tool to help pilots better visualize weather data.  It is not intended as a substitute for an official pre-flight weather briefing.

11:20:48 UTC

KOSH METAR
Wittman Regional Airport
Oshkosh, Wisconsin, USA
Current

28 mins ago

KOSH 251053Z AUTO 01012KT 10SM CLR M02/M05 A3004 RMK AO2 SLP184 T10221050
Observed
Feb-25 @ 10:53 UTC
Wind
  • 010° at 12 KTS
Visibility
10 SM
Flight Rules
VFR
Cloud Levels
  • Clear skies
Temperature
-2°C / 28°F
Dewpoint
-5°C / 23°F
Humidity
80%
Altimeter
30.04" Hg
Pressure
1017.32 hPa
Previous

1 hour ago

KOSH 250953Z AUTO 02013KT 10SM CLR M02/M06 A3002 RMK AO2 SLP179 T10171056
Observed
Feb-25 @ 09:53 UTC
Wind
  • 020° at 13 KTS
Visibility
10 SM
Flight Rules
VFR
Cloud Levels
  • Clear skies
Temperature
-2°C / 28°F
Dewpoint
-6°C / 21°F
Humidity
74%
Altimeter
30.02" Hg
Pressure
1016.62 hPa
Previous

2 hours ago

KOSH 250853Z AUTO 03009KT 10SM CLR M02/M06 A3000 RMK AO2 SLP172 T10171056 50009
Observed
Feb-25 @ 08:53 UTC
Wind
  • 030° at 9 KTS
Visibility
10 SM
Flight Rules
VFR
Cloud Levels
  • Clear skies
Temperature
-2°C / 28°F
Dewpoint
-6°C / 21°F
Humidity
74%
Altimeter
30" Hg
Pressure
1015.92 hPa